Cheshire, CT (06408)

12:34 PM EDT on July 28, 2015 (GMT -0400)
Rogers Orchards Sunnymount Farm | | Change Station
CLOSE
Current Station
Personal Weather Station
Location: Southington, CT
Elevation: 666 ft
Nearby Weather Stations

Elev 666 ft 41.56 °N, 72.94 °W | Updated 1 second ago

Clear
Clear
85.2 °F
Feels Like 87 °F
N
4.0
Wind Variable Wind from WNW
Gusts 7.0 mph

Today
High -- | Low -- °F
--% Chance of Precip.
Yesterday
High -- | Low -- °F
Precip. -- in
5:42 AM 8:13 PM
Waxing Gibbous, 90% visible
Pressure 29.96 in
Visibility 10.0 miles
Clouds Clear
Heat Index 87 °F
Dew Point 64 °F
Humidity 50%
Rainfall 0.00 in
Snow Depth Not available.
UV 11 out of 12
Pollen 5.80 out of 12
Air Quality Not available.
Flu Activity Not available.
METAR KMMK 281553Z AUTO VRB04KT 10SM CLR 32/17 A2997 RMK AO2 SLP145 T03220167 TSNO

More Conditions Fewer Conditions

Pressure 29.96 in
Visibility 10.0 miles
Clouds Clear
Heat Index 87 °F
Dew Point 64 °F
Humidity 50%
Rainfall 0.00 in
Snow Depth Not available.
UV 11 out of 12
Pollen 5.80 out of 12
Air Quality Not available.
Flu Activity Not available.
METAR KMMK 281553Z AUTO VRB04KT 10SM CLR 32/17 A2997 RMK AO2 SLP145 T03220167 TSNO

More Conditions Fewer Conditions

10-Day Weather Forecast

×

Almanac

Astronomy

Jul. 28, 2015 Rise Set
Actual Time
Civil Twilight
Nautical Twilight
Astronomical Twilight
Moon
Length of Visible Light
Length of Day
Tomorrow will be .
, % of the Moon is Illuminated

Today's Extremes

State Highs State Lows

Community

WunderPhotos

Upload Photos

1,841,886 photos uploaded!

WunderBlogs® & News

Nearby

Air Quality

  Air Quality AQ Index Pollutant
Not available.

Snow Depth

Station Depth Elevation

Earthquake Activity

City Distance Mag. Time & Date
Minimum magnitude displayed is 2.5.

Coastal Water Temperatures

Place Temperature

Stations

Nearby Weather Stations

Station Location Temp. Windchill Dew Point Humidity Wind Precip. Elev Updated Type